Time;durP1;ratioP1;P1;durP2;ratioP2;P2;SDS_P1;SDS_P2;PMS_P1;PMS_P2;Temp;Humidity;BMP_temperature;BMP_pressure;BME280_temperature;BME280_humidity;BME280_pressure;Samples;Min_cycle;Max_cycle;Signal;HPM_P1;HPM_P2
2022/05/13 00:01:53;;;;;;;6.53;4.07;;;436.10;2355.20;;;;;;5051773;28;20029;-57
2022/05/13 00:04:20;;;;;;;4.55;3.63;;;436.10;2355.20;;;;;;5052048;28;20094;-56
2022/05/13 00:06:45;;;;;;;4.50;3.33;;;435.90;2355.20;;;;;;5051684;28;20025;-57
2022/05/13 00:09:11;;;;;;;6.40;4.25;;;435.80;2355.20;;;;;;5051933;28;20432;-55
2022/05/13 00:11:37;;;;;;;7.28;3.83;;;435.80;2355.20;;;;;;5051777;28;20025;-56
2022/05/13 00:14:05;;;;;;;7.47;3.90;;;435.80;2355.20;;;;;;5051905;28;20391;-57
2022/05/13 00:16:34;;;;;;;5.45;3.28;;;435.80;2355.20;;;;;;5051786;28;20025;-57
2022/05/13 00:19:01;;;;;;;6.18;4.28;;;435.70;2355.20;;;;;;5051863;28;20051;-57
2022/05/13 00:21:27;;;;;;;6.53;4.20;;;435.70;2355.20;;;;;;5051673;28;20479;-57
2022/05/13 00:23:52;;;;;;;5.93;3.55;;;435.70;2355.20;;;;;;5051392;28;20059;-56
2022/05/13 00:26:18;;;;;;;7.75;3.70;;;435.60;2355.20;;;;;;5051530;28;20033;-56
2022/05/13 00:28:44;;;;;;;5.43;3.58;;;435.50;2355.20;;;;;;5051509;28;20446;-56
2022/05/13 00:31:12;;;;;;;5.15;3.65;;;435.60;2355.20;;;;;;5051387;28;20021;-57
2022/05/13 00:33:38;;;;;;;6.05;3.55;;;435.50;2355.20;;;;;;5051629;28;20036;-56
2022/05/13 00:36:04;;;;;;;6.18;3.40;;;435.50;2355.20;;;;;;5051155;28;20037;-56
2022/05/13 00:38:30;;;;;;;6.25;3.88;;;435.50;2355.20;;;;;;5051191;28;20479;-57
2022/05/13 00:40:56;;;;;;;5.43;3.92;;;435.40;2355.20;;;;;;5051199;28;20033;-56
2022/05/13 00:43:44;;;;;;;5.72;3.72;;;435.30;2355.20;;;;;;5051411;28;20033;-57
2022/05/13 00:46:10;;;;;;;5.13;3.42;;;435.30;2355.20;;;;;;5051390;28;20033;-57
2022/05/13 00:48:36;;;;;;;7.22;3.70;;;435.30;2355.20;;;;;;5051042;28;20025;-56
2022/05/13 00:51:05;;;;;;;5.55;3.38;;;410.50;2355.20;;;;;;5051005;28;20162;-57
2022/05/13 00:53:32;;;;;;;5.25;3.88;;;410.50;2355.20;;;;;;5051163;28;20051;-56
2022/05/13 00:55:59;;;;;;;6.40;4.13;;;410.40;2355.20;;;;;;5050950;28;20029;-57
2022/05/13 00:58:26;;;;;;;5.25;3.67;;;410.40;2355.20;;;;;;5050923;28;20025;-57
2022/05/13 01:00:52;;;;;;;5.57;3.80;;;410.50;2355.20;;;;;;5051057;28;20029;-57
2022/05/13 01:03:18;;;;;;;6.85;3.38;;;410.40;2355.20;;;;;;5051088;28;20029;-57
2022/05/13 01:05:49;;;;;;;6.97;3.78;;;410.50;2355.20;;;;;;5050652;28;20075;-57
2022/05/13 01:08:15;;;;;;;4.85;3.42;;;410.50;2355.20;;;;;;5050571;28;20037;-57
2022/05/13 01:10:43;;;;;;;7.43;4.00;;;435.20;2355.20;;;;;;5050639;28;20074;-56
2022/05/13 01:13:14;;;;;;;5.95;3.53;;;435.30;2355.20;;;;;;5050742;28;20021;-56
2022/05/13 01:15:42;;;;;;;5.10;3.22;;;435.20;2355.20;;;;;;5050675;28;20108;-56
2022/05/13 01:18:10;;;;;;;4.80;3.55;;;410.50;2355.20;;;;;;5050819;28;20045;-56
2022/05/13 01:20:38;;;;;;;5.38;3.78;;;410.50;2355.20;;;;;;5050356;28;20103;-57
2022/05/13 01:23:07;;;;;;;5.28;3.50;;;410.50;2355.20;;;;;;5050583;28;20028;-57
2022/05/13 01:25:37;;;;;;;7.07;3.40;;;410.50;2355.20;;;;;;5050145;28;20043;-55
2022/05/13 01:28:43;;;;;;;6.55;3.72;;;410.50;2355.20;;;;;;5050329;28;20016;-56
2022/05/13 01:31:13;;;;;;;5.95;3.67;;;410.50;2355.20;;;;;;5048104;28;20044;-57
2022/05/13 01:33:40;;;;;;;5.15;3.60;;;410.40;2355.20;;;;;;5048380;28;20021;-56
2022/05/13 01:36:09;;;;;;;6.40;4.00;;;410.40;2355.20;;;;;;5047953;28;20049;-57
2022/05/13 01:38:38;;;;;;;5.30;3.53;;;410.40;2355.20;;;;;;5047838;28;20057;-57
2022/05/13 01:41:06;;;;;;;5.85;4.05;;;410.40;2355.20;;;;;;5047708;28;20025;-56
2022/05/13 01:43:32;;;;;;;6.38;3.90;;;410.30;2355.20;;;;;;5048100;28;20017;-56
2022/05/13 01:45:57;;;;;;;4.95;3.58;;;410.30;2355.20;;;;;;5048045;28;20120;-55
2022/05/13 01:48:25;;;;;;;5.80;3.80;;;410.20;2355.20;;;;;;5047979;28;20482;-56
2022/05/13 01:50:51;;;;;;;4.93;3.75;;;410.30;2355.20;;;;;;5048185;28;20072;-57
2022/05/13 01:53:17;;;;;;;6.72;3.65;;;410.30;2355.20;;;;;;5048032;28;20029;-55
2022/05/13 01:55:43;;;;;;;4.63;3.13;;;410.40;2355.20;;;;;;5047688;28;20040;-57
2022/05/13 01:58:13;;;;;;;5.25;3.85;;;410.30;2355.20;;;;;;5047996;28;20025;-57
2022/05/13 02:00:40;;;;;;;5.13;3.67;;;410.30;2355.20;;;;;;5047755;28;20048;-57
2022/05/13 02:05:50;;;;;;;5.60;3.40;;;410.30;2355.20;;;;;;5047656;28;20064;-56
2022/05/13 02:08:16;;;;;;;5.97;3.70;;;410.20;2355.20;;;;;;5049017;28;20104;-56
2022/05/13 02:10:43;;;;;;;5.25;3.35;;;410.20;2355.20;;;;;;5049880;28;20029;-56
2022/05/13 02:13:10;;;;;;;4.45;2.95;;;410.20;2355.20;;;;;;5049882;28;20112;-56
2022/05/13 02:15:36;;;;;;;6.25;3.90;;;410.10;2355.20;;;;;;5052340;28;20390;-56
2022/05/13 02:18:02;;;;;;;6.68;3.28;;;410.10;2355.20;;;;;;5054014;28;20021;-56
2022/05/13 02:20:28;;;;;;;6.03;3.25;;;410.20;2355.20;;;;;;5054007;28;20102;-57
2022/05/13 02:22:53;;;;;;;6.97;3.55;;;410.10;2355.20;;;;;;5053804;28;20021;-56
2022/05/13 02:25:19;;;;;;;5.63;3.45;;;410.10;2355.20;;;;;;5053784;28;20497;-57
2022/05/13 02:27:45;;;;;;;6.85;4.13;;;410.10;2355.20;;;;;;5053481;28;20025;-56
2022/05/13 02:30:12;;;;;;;4.90;3.03;;;409.90;2355.20;;;;;;5053887;28;20079;-57
2022/05/13 02:32:38;;;;;;;5.60;3.40;;;409.90;2355.20;;;;;;5053645;28;20028;-56
2022/05/13 02:35:05;;;;;;;5.45;3.38;;;409.80;2355.20;;;;;;5053605;28;20021;-57
2022/05/13 02:37:31;;;;;;;6.85;3.60;;;409.80;2355.20;;;;;;5053475;28;20045;-57
2022/05/13 02:39:57;;;;;;;5.20;3.50;;;409.80;2355.20;;;;;;5053308;28;20098;-56
2022/05/13 02:42:22;;;;;;;6.10;3.67;;;409.80;2355.20;;;;;;5053319;28;20067;-57
2022/05/13 02:44:48;;;;;;;5.80;3.65;;;409.70;2355.20;;;;;;5053424;28;20032;-56
2022/05/13 02:47:14;;;;;;;6.15;4.05;;;409.70;2355.20;;;;;;5053410;28;20024;-56
2022/05/13 02:49:40;;;;;;;6.40;3.80;;;409.70;2355.20;;;;;;5053656;28;20028;-56
2022/05/13 02:52:06;;;;;;;4.68;3.47;;;409.70;2355.20;;;;;;5053214;28;20428;-56
2022/05/13 02:54:32;;;;;;;4.95;3.13;;;409.70;2355.20;;;;;;5053281;28;20446;-56
2022/05/13 02:56:58;;;;;;;8.98;3.78;;;409.80;2355.20;;;;;;5053264;28;20104;-58
2022/05/13 02:59:24;;;;;;;5.78;3.85;;;409.70;2355.20;;;;;;5053061;28;20167;-56
2022/05/13 03:01:50;;;;;;;5.80;3.65;;;409.70;2355.20;;;;;;5053402;28;20035;-56
2022/05/13 03:04:16;;;;;;;5.72;4.05;;;409.70;2355.20;;;;;;5052914;28;20021;-56
2022/05/13 03:06:42;;;;;;;4.57;3.28;;;409.80;2355.20;;;;;;5052859;28;20112;-57
2022/05/13 03:09:09;;;;;;;7.13;3.83;;;409.80;2355.20;;;;;;5053246;28;20104;-56
2022/05/13 03:11:36;;;;;;;5.32;3.47;;;409.80;2355.20;;;;;;5052623;28;20029;-57
2022/05/13 03:14:03;;;;;;;5.80;3.45;;;409.90;2355.20;;;;;;5052804;28;20283;-57
2022/05/13 03:16:30;;;;;;;6.72;3.35;;;409.90;2355.20;;;;;;5053147;28;20021;-57
2022/05/13 03:18:58;;;;;;;6.78;3.92;;;409.90;2355.20;;;;;;5052911;28;20075;-56
2022/05/13 03:21:26;;;;;;;7.35;3.45;;;409.80;2355.20;;;;;;5052868;28;20025;-55
2022/05/13 03:23:52;;;;;;;4.35;3.08;;;409.90;2355.20;;;;;;5052682;28;20029;-57
2022/05/13 03:26:20;;;;;;;5.50;3.58;;;409.90;2355.20;;;;;;5051410;28;20103;-56
2022/05/13 03:28:46;;;;;;;4.85;3.25;;;409.90;2355.20;;;;;;5052532;28;20414;-57
2022/05/13 03:31:13;;;;;;;6.68;3.80;;;409.90;2355.20;;;;;;5052712;28;20021;-57
2022/05/13 03:33:39;;;;;;;4.00;3.22;;;409.90;2355.20;;;;;;5052539;28;20021;-56
2022/05/13 03:36:06;;;;;;;5.85;3.63;;;409.90;2355.20;;;;;;5052147;28;20478;-55
2022/05/13 03:38:32;;;;;;;5.43;3.50;;;410.00;2355.20;;;;;;5052522;28;20546;-57
2022/05/13 03:40:57;;;;;;;6.40;3.47;;;410.10;2355.20;;;;;;5051749;28;20039;-56
2022/05/13 03:43:23;;;;;;;5.07;3.20;;;410.10;2355.20;;;;;;5052087;28;20029;-57
2022/05/13 03:45:49;;;;;;;5.90;3.65;;;410.20;2355.20;;;;;;5052574;28;20064;-57
2022/05/13 03:48:15;;;;;;;6.80;3.28;;;410.20;2355.20;;;;;;5052074;28;20103;-56
2022/05/13 03:50:43;;;;;;;5.15;3.25;;;410.20;2355.20;;;;;;5052379;28;20029;-56
2022/05/13 03:53:09;;;;;;;6.05;3.75;;;410.30;2355.20;;;;;;5052292;28;20025;-56
2022/05/13 03:55:35;;;;;;;4.90;3.50;;;410.40;2355.20;;;;;;5052171;28;20021;-55
2022/05/13 03:58:02;;;;;;;4.70;3.17;;;410.50;2355.20;;;;;;5052128;28;20099;-56
2022/05/13 04:00:29;;;;;;;7.00;4.43;;;435.20;2355.20;;;;;;5052208;28;20582;-56
2022/05/13 04:02:55;;;;;;;5.68;3.50;;;435.30;2355.20;;;;;;5052224;28;20021;-56
2022/05/13 04:10:50;;;;;;;5.03;3.33;;;435.50;2355.20;;;;;;5052214;28;20067;-56
2022/05/13 04:16:06;;;;;;;7.03;3.22;;;435.70;2355.20;;;;;;5051963;28;20040;-56
2022/05/13 04:18:36;;;;;;;6.35;3.28;;;435.80;2355.20;;;;;;5051643;28;20029;-57
2022/05/13 04:21:04;;;;;;;6.20;4.13;;;435.90;2355.20;;;;;;5052024;28;20662;-55
2022/05/13 04:23:35;;;;;;;4.38;3.50;;;435.90;2355.20;;;;;;5051682;28;20029;-57
2022/05/13 04:26:01;;;;;;;5.82;3.80;;;436.00;2355.20;;;;;;5051622;28;20110;-56
2022/05/13 04:28:28;;;;;;;6.35;3.55;;;436.10;2355.20;;;;;;5051671;28;20398;-56
2022/05/13 04:30:54;;;;;;;6.05;3.25;;;436.10;2355.20;;;;;;5051418;28;20025;-57
2022/05/13 04:33:20;;;;;;;5.45;3.80;;;460.80;2380.80;;;;;;5051640;28;20078;-57
2022/05/13 04:35:45;;;;;;;7.22;3.67;;;460.80;2380.80;;;;;;5051077;28;20033;-56
2022/05/13 04:38:11;;;;;;;5.32;3.35;;;460.90;2380.80;;;;;;5050985;28;20487;-56
2022/05/13 04:40:37;;;;;;;6.82;3.17;;;461.20;2380.80;;;;;;5043382;28;20029;-56
2022/05/13 04:43:03;;;;;;;5.88;3.47;;;461.30;2380.80;;;;;;5048143;28;20025;-57
2022/05/13 04:45:30;;;;;;;6.50;3.35;;;461.40;2380.80;;;;;;5051196;28;20033;-57
2022/05/13 04:51:02;;;;;;;4.68;3.70;;;564.10;2048.00;;;;;;5051520;28;20067;-57
2022/05/13 04:53:31;;;;;;;8.88;4.25;;;691.30;1561.60;;;;;;5051101;28;20502;-55
2022/05/13 04:55:58;;;;;;;5.55;4.20;;;742.80;1408.00;;;;;;5051131;28;20029;-57
2022/05/13 04:58:25;;;;;;;7.40;4.80;;;794.00;1280.00;;;;;;5050998;28;20021;-57
2022/05/13 05:00:53;;;;;;;4.50;3.97;;;819.80;1203.20;;;;;;5051046;28;20477;-57
2022/05/13 05:03:20;;;;;;;4.53;4.13;;;870.50;1126.40;;;;;;5050858;28;20041;-58
2022/05/13 05:05:46;;;;;;;5.45;4.95;;;896.20;1075.20;;;;;;5050515;28;20033;-57
2022/05/13 05:08:13;;;;;;;6.43;5.32;;;896.60;1024.00;;;;;;5050682;28;20393;-58
2022/05/13 05:10:40;;;;;;;5.82;5.32;;;870.40;1126.40;;;;;;5050871;28;20083;-59
2022/05/13 05:13:07;;;;;;;8.23;5.63;;;896.20;1049.60;;;;;;5050628;28;20032;-59
2022/05/13 05:15:34;;;;;;;7.20;5.30;;;921.60;1075.20;;;;;;5050649;28;20029;-59
2022/05/13 05:18:00;;;;;;;5.13;4.70;;;921.70;1024.00;;;;;;5050632;28;20463;-59
2022/05/13 05:20:26;;;;;;;5.80;5.30;;;921.70;1024.00;;;;;;5050585;28;20031;-59
2022/05/13 05:22:52;;;;;;;5.47;4.97;;;896.50;998.40;;;;;;5050491;28;20021;-59
2022/05/13 05:25:20;;;;;;;5.57;4.95;;;921.70;1024.00;;;;;;5050572;28;20503;-58
2022/05/13 05:27:47;;;;;;;6.28;5.68;;;947.30;972.80;;;;;;5050217;28;20525;-58
2022/05/13 05:30:15;;;;;;;6.32;5.82;;;922.30;998.40;;;;;;5050412;28;20398;-58
2022/05/13 05:32:42;;;;;;;7.00;6.40;;;948.10;972.80;;;;;;5050379;28;20052;-58
2022/05/13 05:35:12;;;;;;;7.03;5.90;;;973.20;972.80;;;;;;5050531;28;20025;-61
2022/05/13 05:37:38;;;;;;;7.65;6.93;;;998.60;947.20;;;;;;5050223;28;20403;-63
2022/05/13 05:40:05;;;;;;;6.47;5.90;;;1024.40;921.60;;;;;;5049861;28;20040;-60
2022/05/13 05:42:31;;;;;;;8.65;7.85;;;1049.80;921.60;;;;;;5050375;28;20071;-62
2022/05/13 05:44:57;;;;;;;8.45;7.82;;;1050.40;896.00;;;;;;5049860;28;20033;-61
2022/05/13 05:47:23;;;;;;;7.93;7.22;;;1024.60;921.60;;;;;;5050011;28;20094;-61
2022/05/13 05:49:50;;;;;;;7.75;7.03;;;1049.70;947.20;;;;;;5049331;28;20483;-60
2022/05/13 05:52:16;;;;;;;8.13;7.53;;;1050.40;896.00;;;;;;5049957;28;20467;-64
2022/05/13 05:57:27;;;;;;;8.10;7.47;;;1126.70;844.80;;;;;;5049886;28;20054;-61
2022/05/13 05:59:54;;;;;;;9.63;8.80;;;1152.40;819.20;;;;;;5049664;28;20036;-62
2022/05/13 06:02:19;;;;;;;8.70;8.00;;;1152.50;793.60;;;;;;5050254;28;20032;-61
2022/05/13 06:04:45;;;;;;;10.15;9.25;;;1101.60;844.80;;;;;;5049748;28;20037;-61
2022/05/13 06:07:14;;;;;;;9.75;9.13;;;1101.10;870.40;;;;;;5049882;28;20026;-66
2022/05/13 06:09:41;;;;;;;10.57;9.77;;;1126.40;870.40;;;;;;5050015;28;20033;-66
2022/05/13 06:12:09;;;;;;;9.60;8.90;;;1101.70;844.80;;;;;;5050072;28;20463;-61
2022/05/13 06:14:35;;;;;;;10.20;9.60;;;1126.70;844.80;;;;;;5049592;28;20025;-61
2022/05/13 06:17:01;;;;;;;10.10;9.15;;;1126.90;819.20;;;;;;5050070;28;20067;-61
2022/05/13 06:19:27;;;;;;;11.13;10.18;;;1178.30;742.40;;;;;;5050194;28;20028;-61
2022/05/13 06:21:55;;;;;;;11.75;10.65;;;1101.50;870.40;;;;;;5049900;28;20107;-61
2022/05/13 06:24:21;;;;;;;11.23;10.43;;;1101.10;870.40;;;;;;5049710;28;20547;-61
2022/05/13 06:26:48;;;;;;;10.07;9.32;;;1101.00;870.40;;;;;;5049555;28;20460;-62
2022/05/13 06:29:22;;;;;;;11.07;10.27;;;1127.10;844.80;;;;;;5049471;28;20553;-61
2022/05/13 06:31:48;;;;;;;10.07;9.38;;;1101.60;870.40;;;;;;5049799;28;20020;-61
2022/05/13 06:34:15;;;;;;;10.90;10.13;;;1101.30;844.80;;;;;;5049775;28;20021;-61
2022/05/13 06:36:41;;;;;;;9.63;8.93;;;1075.80;870.40;;;;;;5049614;28;20033;-61
2022/05/13 06:39:07;;;;;;;9.43;8.73;;;1075.70;896.00;;;;;;5049452;28;20049;-61
2022/05/13 06:41:37;;;;;;;10.50;9.80;;;1126.90;844.80;;;;;;5049485;28;20396;-62
2022/05/13 06:44:07;;;;;;;10.70;10.00;;;1178.50;742.40;;;;;;5049411;28;20078;-62
2022/05/13 06:46:35;;;;;;;11.65;10.82;;;1229.20;742.40;;;;;;5049751;28;20036;-61
2022/05/13 06:49:04;;;;;;;12.35;11.23;;;1229.70;716.80;;;;;;5049750;28;20021;-62
2022/05/13 06:51:31;;;;;;;12.48;11.48;;;1254.80;742.40;;;;;;5049777;28;20096;-61
2022/05/13 06:53:57;;;;;;;12.32;11.57;;;1255.10;716.80;;;;;;5049013;28;20036;-61
2022/05/13 06:56:22;;;;;;;12.98;12.18;;;1255.30;716.80;;;;;;5044307;28;20029;-63
2022/05/13 06:58:48;;;;;;;12.07;11.38;;;1280.00;691.20;;;;;;5029659;28;20644;-68
2022/05/13 07:01:14;;;;;;;12.52;11.82;;;1280.40;691.20;;;;;;5032128;28;20030;-62
2022/05/13 07:03:39;;;;;;;13.95;13.18;;;1305.60;665.60;;;;;;5033230;28;20382;-67
2022/05/13 07:06:05;;;;;;;12.63;11.93;;;1305.60;691.20;;;;;;5032807;28;20464;-68
2022/05/13 07:08:31;;;;;;;13.93;13.13;;;1280.40;691.20;;;;;;5033346;28;20029;-62
2022/05/13 07:10:57;;;;;;;14.00;13.00;;;1305.70;665.60;;;;;;5033392;28;20021;-67
2022/05/13 07:13:24;;;;;;;13.32;12.52;;;1255.30;691.20;;;;;;5032782;28;20390;-62
2022/05/13 07:15:49;;;;;;;13.23;12.43;;;1254.80;716.80;;;;;;5033337;28;20423;-68
2022/05/13 07:18:15;;;;;;;12.48;11.77;;;1255.30;691.20;;;;;;5039019;28;20045;-65
2022/05/13 07:20:41;;;;;;;13.18;12.38;;;1255.30;716.80;;;;;;5041064;28;20079;-62
2022/05/13 07:23:07;;;;;;;13.73;12.93;;;1254.50;742.40;;;;;;5037707;28;20521;-67
2022/05/13 07:25:33;;;;;;;13.38;12.68;;;1254.40;742.40;;;;;;5037881;28;20049;-63
2022/05/13 07:27:59;;;;;;;14.02;13.25;;;1255.00;716.80;;;;;;5041529;28;20021;-61
2022/05/13 07:30:25;;;;;;;12.75;11.95;;;1255.00;716.80;;;;;;5043139;28;20021;-66
2022/05/13 07:32:50;;;;;;;13.43;12.45;;;1280.90;665.60;;;;;;5049805;28;20456;-62
2022/05/13 07:35:16;;;;;;;13.40;12.60;;;1305.90;640.00;;;;;;5051093;28;20064;-62
2022/05/13 07:37:42;;;;;;;13.13;12.32;;;1331.20;640.00;;;;;;5052319;28;20045;-62
2022/05/13 07:42:53;;;;;;;13.27;12.48;;;1305.60;614.40;;;;;;5052199;28;20075;-67
2022/05/13 07:45:19;;;;;;;12.88;12.10;;;1280.40;665.60;;;;;;5052363;28;20064;-63
2022/05/13 07:47:45;;;;;;;14.02;13.05;;;1254.90;691.20;;;;;;5048759;28;20032;-62
2022/05/13 07:50:12;;;;;;;12.52;11.85;;;1280.70;640.00;;;;;;5052294;28;20037;-61
2022/05/13 07:52:40;;;;;;;13.05;12.32;;;1280.90;614.40;;;;;;5052415;28;20430;-62
2022/05/13 07:55:15;;;;;;;11.43;10.77;;;1280.70;640.00;;;;;;5051988;28;20043;-62
2022/05/13 07:57:43;;;;;;;11.75;10.95;;;1254.60;691.20;;;;;;5049336;28;20025;-61
2022/05/13 08:00:32;;;;;;;11.90;11.20;;;1255.10;665.60;;;;;;5042772;28;20027;-62
2022/05/13 08:03:11;;;;;;;12.70;11.95;;;1255.30;665.60;;;;;;5040630;28;20598;-63
2022/05/13 08:05:44;;;;;;;12.05;11.35;;;1255.30;640.00;;;;;;5043341;28;20037;-67
2022/05/13 08:08:40;;;;;;;11.63;11.02;;;1255.30;640.00;;;;;;5042121;28;20029;-64
2022/05/13 08:11:10;;;;;;;11.95;11.25;;;1254.50;665.60;;;;;;5041380;28;20473;-63
2022/05/13 08:13:37;;;;;;;12.10;11.40;;;1254.60;665.60;;;;;;5039562;28;20048;-65
2022/05/13 08:16:15;;;;;;;10.60;10.00;;;1229.70;691.20;;;;;;5041574;28;20068;-62
2022/05/13 08:18:42;;;;;;;11.25;10.50;;;1203.80;665.60;;;;;;5040574;28;20076;-62
2022/05/13 08:21:08;;;;;;;9.60;9.00;;;1178.10;691.20;;;;;;5040873;28;20067;-61
2022/05/13 08:23:34;;;;;;;8.65;8.05;;;1101.50;768.00;;;;;;5041787;28;20023;-60
2022/05/13 08:26:00;;;;;;;6.47;5.88;;;1049.60;819.20;;;;;;5040444;28;20041;-64
2022/05/13 08:28:26;;;;;;;6.25;5.70;;;973.60;896.00;;;;;;5040744;28;20025;-61
2022/05/13 08:30:53;;;;;;;6.50;5.13;;;972.80;921.60;;;;;;5041912;28;20021;-61
2022/05/13 08:33:19;;;;;;;5.35;4.85;;;947.60;921.60;;;;;;5040089;28;20024;-60
2022/05/13 08:35:48;;;;;;;5.35;4.85;;;947.20;972.80;;;;;;5040688;28;20109;-64
2022/05/13 08:38:15;;;;;;;5.90;5.00;;;922.30;947.20;;;;;;5041536;28;20094;-62
2022/05/13 08:40:53;;;;;;;7.68;5.22;;;921.80;998.40;;;;;;5040428;28;20018;-61
2022/05/13 08:43:27;;;;;;;5.22;4.70;;;896.50;972.80;;;;;;5039735;28;20052;-61
2022/05/13 08:45:56;;;;;;;5.45;4.50;;;871.10;1024.00;;;;;;5039304;28;20292;-61
2022/05/13 08:48:39;;;;;;;6.07;4.90;;;871.10;1024.00;;;;;;5041345;28;20068;-60
2022/05/13 08:51:15;;;;;;;5.63;4.68;;;871.10;1049.60;;;;;;5040468;28;20075;-63
2022/05/13 08:53:41;;;;;;;5.55;5.00;;;870.80;1024.00;;;;;;5040218;28;20025;-60
2022/05/13 08:56:10;;;;;;;7.47;5.30;;;870.50;1049.60;;;;;;5035052;28;20018;-61
2022/05/13 08:58:46;;;;;;;5.45;4.72;;;870.40;1075.20;;;;;;5031103;28;20048;-61
2022/05/13 09:01:19;;;;;;;6.50;4.53;;;845.50;1075.20;;;;;;5031024;28;20514;-61
2022/05/13 09:03:50;;;;;;;;;;;845.30;1075.20;;;;;;5031540;28;20471;-61
2022/05/13 09:06:42;;;;;;;4.60;4.03;;;845.50;1100.80;;;;;;5030693;28;19917;-61
2022/05/13 09:09:10;;;;;;;5.45;4.57;;;845.20;1126.40;;;;;;5030899;28;20112;-61
2022/05/13 09:11:52;;;;;;;4.95;4.20;;;845.40;1100.80;;;;;;5030845;28;20074;-61
2022/05/13 09:14:43;;;;;;;5.47;4.72;;;845.10;1126.40;;;;;;5030127;28;20407;-61
2022/05/13 09:17:31;;;;;;;5.57;4.53;;;844.80;1152.00;;;;;;5030908;28;20025;-61
2022/05/13 09:20:11;;;;;;;6.93;4.68;;;844.90;1126.40;;;;;;5030762;28;20048;-60
2022/05/13 09:22:58;;;;;;;8.25;5.65;;;844.90;1152.00;;;;;;5029295;28;20075;-61
2022/05/13 09:26:01;;;;;;;5.90;4.47;;;844.90;1126.40;;;;;;5030350;28;20033;-61
2022/05/13 09:28:28;;;;;;;5.18;4.03;;;844.90;1152.00;;;;;;5030625;28;20488;-61
2022/05/13 09:31:15;;;;;;;5.43;4.20;;;845.00;1152.00;;;;;;5030438;28;20030;-61
2022/05/13 09:33:46;;;;;;;6.22;4.63;;;845.00;1126.40;;;;;;5030553;28;20392;-61
2022/05/13 09:36:21;;;;;;;8.73;4.35;;;844.90;1152.00;;;;;;5030230;28;20060;-61
2022/05/13 09:39:16;;;;;;;5.03;4.20;;;844.80;1126.40;;;;;;5030050;28;20050;-61
2022/05/13 09:41:42;;;;;;;6.03;4.45;;;820.10;1152.00;;;;;;5029779;28;20033;-62
2022/05/13 09:44:26;;;;;;;5.93;4.07;;;819.90;1152.00;;;;;;5030335;28;20026;-61
2022/05/13 09:47:13;;;;;;;5.00;4.35;;;820.10;1152.00;;;;;;5030265;28;20025;-61
2022/05/13 09:49:42;;;;;;;5.13;4.28;;;819.80;1126.40;;;;;;5030250;28;20032;-61
2022/05/13 09:52:14;;;;;;;5.38;3.92;;;819.50;1152.00;;;;;;5030373;28;20038;-61
2022/05/13 09:54:47;;;;;;;5.35;3.95;;;819.30;1177.60;;;;;;5030249;28;20025;-61
2022/05/13 09:57:27;;;;;;;5.22;4.07;;;819.60;1126.40;;;;;;5029865;28;20018;-61
2022/05/13 09:59:58;;;;;;;4.90;4.40;;;819.60;1177.60;;;;;;5029960;28;20526;-61
2022/05/13 10:02:43;;;;;;;6.20;4.38;;;819.80;1126.40;;;;;;5030373;28;20453;-61
2022/05/13 10:05:21;;;;;;;5.15;3.92;;;819.60;1075.20;;;;;;5029858;28;20044;-62
2022/05/13 10:07:55;;;;;;;5.40;4.22;;;819.60;1100.80;;;;;;5029680;28;20065;-60
2022/05/13 10:16:27;;;;;;;5.82;4.50;;;819.90;1049.60;;;;;;5029795;28;20064;-61
2022/05/13 10:19:10;;;;;;;5.43;4.53;;;794.50;1100.80;;;;;;5029689;28;20025;-61
2022/05/13 10:21:42;;;;;;;;;;;794.40;1100.80;;;;;;5030126;28;20353;-61
2022/05/13 10:24:31;;;;;;;4.07;3.55;;;819.50;1126.40;;;;;;5029900;28;19905;-61
2022/05/13 10:27:00;;;;;;;6.43;4.72;;;819.60;1177.60;;;;;;5029970;28;20028;-61
2022/05/13 10:29:36;;;;;;;6.97;4.30;;;819.60;1075.20;;;;;;5029718;28;20412;-60
2022/05/13 10:32:15;;;;;;;6.75;4.07;;;819.60;1177.60;;;;;;5029631;28;20018;-61
2022/05/13 10:34:53;;;;;;;5.38;3.90;;;819.60;1126.40;;;;;;5029919;28;20384;-62
2022/05/13 10:37:37;;;;;;;7.68;4.18;;;819.70;1100.80;;;;;;5033599;28;20045;-62
2022/05/13 10:40:09;;;;;;;6.47;4.13;;;819.70;1152.00;;;;;;5033492;28;20380;-61
2022/05/13 10:43:16;;;;;;;5.10;4.15;;;819.60;1126.40;;;;;;5033560;28;20029;-63
2022/05/13 10:45:44;;;;;;;6.20;3.75;;;819.50;1152.00;;;;;;5032231;28;20033;-60
2022/05/13 10:48:24;;;;;;;5.72;4.20;;;819.60;1177.60;;;;;;5033811;28;20067;-61
2022/05/13 10:51:04;;;;;;;5.57;4.35;;;819.50;1100.80;;;;;;5033640;28;20025;-61
2022/05/13 10:53:36;;;;;;;6.22;3.58;;;819.50;1152.00;;;;;;5033545;28;20083;-61
2022/05/13 10:56:08;;;;;;;6.00;4.40;;;819.30;1100.80;;;;;;5033304;28;20021;-61
2022/05/13 10:59:02;;;;;;;6.22;5.40;;;794.30;1152.00;;;;;;5033286;28;20033;-61
2022/05/13 11:02:09;;;;;;;5.55;3.97;;;794.10;1126.40;;;;;;5033579;28;20420;-61
2022/05/13 11:04:56;;;;;;;4.80;3.72;;;794.30;1126.40;;;;;;5030838;28;20057;-61
2022/05/13 11:07:45;;;;;;;4.63;3.75;;;819.30;1152.00;;;;;;5030963;28;20391;-62
2022/05/13 11:10:54;;;;;;;4.80;3.65;;;794.50;1100.80;;;;;;5031014;28;20181;-61
2022/05/13 11:13:33;;;;;;;5.53;4.10;;;794.30;1100.80;;;;;;4972285;28;20066;-60
2022/05/13 11:16:32;;;;;;;4.93;4.40;;;794.50;1126.40;;;;;;4972214;28;20129;-61
2022/05/13 11:19:30;;;;;;;5.60;4.30;;;794.20;1100.80;;;;;;4972079;28;20030;-61
2022/05/13 11:22:14;;;;;;;4.93;3.78;;;794.30;1075.20;;;;;;4971879;28;20043;-61
2022/05/13 11:27:50;;;;;;;6.18;4.60;;;819.30;1152.00;;;;;;4971995;28;20034;-61
2022/05/13 11:30:28;;;;;;;6.22;4.40;;;819.50;1126.40;;;;;;4971605;28;20050;-61
2022/05/13 11:33:02;;;;;;;4.80;4.28;;;794.40;1100.80;;;;;;4971620;28;20033;-60
2022/05/13 11:36:11;;;;;;;5.55;3.50;;;794.50;1126.40;;;;;;4971982;28;20206;-60
2022/05/13 11:38:52;;;;;;;5.63;4.38;;;819.30;1100.80;;;;;;4971404;28;20089;-61
2022/05/13 11:41:22;;;;;;;4.22;3.65;;;794.50;1100.80;;;;;;4971730;28;20062;-61
2022/05/13 11:43:53;;;;;;;6.38;4.10;;;794.30;1100.80;;;;;;4971571;28;20034;-60
2022/05/13 11:46:37;;;;;;;6.68;4.47;;;794.50;1126.40;;;;;;4975125;28;20078;-61
2022/05/13 11:49:17;;;;;;;5.75;4.00;;;819.30;1126.40;;;;;;5030093;28;20061;-61
2022/05/13 11:51:43;;;;;;;7.03;4.70;;;819.30;1126.40;;;;;;5030096;28;20082;-61
2022/05/13 11:54:16;;;;;;;5.07;4.35;;;819.30;1126.40;;;;;;5030156;28;20029;-61
2022/05/13 11:56:46;;;;;;;6.07;3.92;;;794.50;1126.40;;;;;;5030171;28;20026;-62
2022/05/13 11:59:37;;;;;;;6.47;4.30;;;794.40;1100.80;;;;;;5029999;28;20029;-63
2022/05/13 12:02:34;;;;;;;4.70;3.95;;;794.00;1126.40;;;;;;5024503;28;20112;-60
2022/05/13 12:05:08;;;;;;;6.65;4.00;;;794.50;1126.40;;;;;;5029922;28;20034;-61
2022/05/13 12:08:00;;;;;;;7.60;3.70;;;794.40;1126.40;;;;;;5029556;28;20381;-61
2022/05/13 12:10:35;;;;;;;4.35;3.60;;;794.10;1126.40;;;;;;5029613;28;20037;-61
2022/05/13 12:13:13;;;;;;;5.25;4.25;;;794.40;1152.00;;;;;;5029976;28;20037;-62
2022/05/13 12:15:48;;;;;;;4.40;3.85;;;794.40;1100.80;;;;;;5032042;28;20430;-61
2022/05/13 12:18:35;;;;;;;5.65;4.03;;;794.50;1100.80;;;;;;5031743;28;20021;-59
2022/05/13 12:21:29;;;;;;;5.00;3.97;;;819.30;1177.60;;;;;;5032028;28;20514;-61
2022/05/13 12:24:15;;;;;;;4.57;3.72;;;819.30;1126.40;;;;;;5031748;28;20475;-61
2022/05/13 12:26:54;;;;;;;4.78;3.72;;;819.60;1177.60;;;;;;5031751;28;20033;-61
2022/05/13 12:29:39;;;;;;;5.63;4.15;;;794.10;1126.40;;;;;;5031772;28;20486;-61
2022/05/13 12:32:05;;;;;;;5.72;4.75;;;793.90;1126.40;;;;;;5031449;28;20029;-61
2022/05/13 12:37:40;;;;;;;4.32;3.65;;;794.10;1177.60;;;;;;5031312;28;20087;-61
2022/05/13 12:40:26;;;;;;;6.13;3.75;;;794.40;1152.00;;;;;;5031456;28;20033;-61
2022/05/13 12:43:04;;;;;;;5.63;3.30;;;819.30;1126.40;;;;;;5031583;28;20075;-60
2022/05/13 12:45:45;;;;;;;5.60;4.10;;;794.50;1126.40;;;;;;5031587;28;20045;-61
2022/05/13 12:48:17;;;;;;;5.25;3.85;;;794.50;1100.80;;;;;;5031625;28;20022;-61
2022/05/13 12:50:48;;;;;;;7.37;3.73;;;794.40;1126.40;;;;;;5031124;28;20578;-61
2022/05/13 12:53:29;;;;;;;5.00;4.15;;;794.50;1126.40;;;;;;5030999;28;20038;-61
2022/05/13 12:56:22;;;;;;;4.32;3.92;;;794.50;1100.80;;;;;;5031475;28;20021;-61
2022/05/13 12:59:16;;;;;;;5.25;3.95;;;794.50;1100.80;;;;;;5030216;28;20037;-61
2022/05/13 13:01:48;;;;;;;6.78;4.72;;;819.30;1177.60;;;;;;5029180;28;20061;-61
2022/05/13 13:04:19;;;;;;;8.33;4.27;;;819.30;1126.40;;;;;;5028942;28;20052;-61
2022/05/13 13:06:48;;;;;;;5.97;4.15;;;819.40;1126.40;;;;;;5028623;28;20119;-61
2022/05/13 13:09:32;;;;;;;5.00;3.75;;;819.40;1152.00;;;;;;5028689;28;20069;-61